Flight Track Log - Related Links

Times and Time Zones

All times are in EDT time to prevent confusion due to time zone crossing. See the ACA831 flight status page for this flight to view local times or setup timezone preferences in your user account.

Time Position Orientation Groundspeed Altitude Reporting Facility
EDT Latitude Longitude Course Direction KTS MPH feet Rate Location/Type
Mon 04:26:12 PM 45.4740 -73.7550 215° Southwest 170 196 100  Level FlightAware ADS-B
Mon 04:26:42 PM 45.4550 -73.7810 224° Southwest 173 199 2,200 3,600 Climbing FlightAware ADS-B
Mon 04:27:07 PM 45.4400 -73.8030 226° Southwest 202 232 3,400 2,550 Climbing FlightAware ADS-B
Mon 04:27:22 PM 45.4330 -73.8230 243° Southwest 232 267 3,900 3,333 Climbing FlightAware ADS-B
Mon 04:27:52 PM 45.4430 -73.8700 287° West 266 306 5,900 4,300 Climbing FlightAware ADS-B
Mon 04:28:22 PM 45.4660 -73.9120 308° West 270 311 8,200 4,473 Climbing FlightAware ADS-B
Mon 04:28:47 PM 45.4790 -73.9520 295° West 273 314 10,000 3,257 Climbing FlightAware ADS-B
Mon 04:29:32 PM 45.4710 -74.0380 262° West 328 377 12,000 2,894 Climbing FlightAware ADS-B
Mon 04:30:12 PM 45.4590 -74.1230 259° West 364 419 14,100 3,450 Climbing FlightAware ADS-B
Mon 04:30:52 PM 45.4470 -74.2190 260° West 382 440 16,600 3,741 Climbing FlightAware ADS-B
Mon 04:31:37 PM 45.4310 -74.3380 259° West 397 457 19,400 3,529 Climbing FlightAware ADS-B
Mon 04:32:17 PM 45.4180 -74.4390 260° West 411 473 21,600 3,075 Climbing FlightAware ADS-B
Mon 04:32:57 PM 45.4000 -74.5480 257° West 427 491 23,500 2,753 Climbing FlightAware ADS-B
Mon 04:33:42 PM 45.3760 -74.6860 256° West 449 517 25,500 2,682 Climbing FlightAware ADS-B
Mon 04:34:22 PM 45.3560 -74.8040 256° West 460 529 27,300 2,471 Climbing FlightAware ADS-B
Mon 04:35:07 PM 45.3340 -74.9330 256° West 473 544 29,000 2,612 Climbing FlightAware ADS-B
Mon 04:35:47 PM 45.3130 -75.0540 256° West 470 541 31,000 1,906 Climbing FlightAware ADS-B
Mon 04:36:32 PM 45.2900 -75.1910 257° West 483 556 31,700 706 Climbing FlightAware ADS-B
Mon 04:37:12 PM 45.2680 -75.3140 256° West 472 543 32,000 225 Climbing FlightAware ADS-B
Mon 04:37:52 PM 45.2480 -75.4330 257° West 457 526 32,000  Level FlightAware ADS-B
Mon 04:38:27 PM 45.2300 -75.5300 255° West 453 521 32,000  Level FlightAware ADS-B
Mon 04:39:17 PM 45.2050 -75.6740 256° West 452 520 32,000  Level FlightAware ADS-B
Mon 04:39:57 PM 45.1860 -75.7800 256° West 455 524 32,000  Level FlightAware ADS-B
Mon 04:40:37 PM 45.1630 -75.9050 255° West 457 526 32,000  Level FlightAware ADS-B
Mon 04:41:22 PM 45.1390 -76.0370 256° West 459 528 32,000  Level FlightAware ADS-B
Mon 04:42:22 PM 45.1050 -76.2120 255° West 460 529 32,000  Level FlightAware ADS-B
Mon 04:42:57 PM 45.0770 -76.2990 246° West 462 532 32,000  Level FlightAware ADS-B
Mon 04:44:27 PM 44.9850 -76.5330 241° Southwest 463 533 32,000  Level FlightAware ADS-B
Mon 04:46:17 PM 44.8690 -76.8220 241° Southwest 463 533 32,000  Level FlightAware ADS-B
Mon 04:46:57 PM 44.8270 -76.9270 241° Southwest 463 533 32,000  Level FlightAware ADS-B
Mon 04:47:42 PM 44.7810 -77.0420 241° Southwest 464 534 32,000  Level FlightAware ADS-B
Mon 04:48:22 PM 44.7400 -77.1440 241° Southwest 463 533 32,000  Level FlightAware ADS-B
Mon 04:49:02 PM 44.6950 -77.2540 240° Southwest 464 534 32,000  Level FlightAware ADS-B
Mon 04:49:47 PM 44.6480 -77.3690 240° Southwest 462 532 32,000  Level FlightAware ADS-B
Mon 04:50:27 PM 44.6030 -77.4780 240° Southwest 461 531 32,000  Level FlightAware ADS-B
Mon 04:51:12 PM 44.5560 -77.5930 240° Southwest 458 527 32,000  Level FlightAware ADS-B
Mon 04:51:52 PM 44.5120 -77.6970 239° Southwest 458 527 32,000  Level FlightAware ADS-B
Mon 04:52:32 PM 44.4700 -77.7990 240° Southwest 457 526 32,000 -141 Level FlightAware ADS-B
Mon 04:53:17 PM 44.4210 -77.9170 240° Southwest 453 521 31,800 -635 Descending FlightAware ADS-B
Mon 04:53:57 PM 44.3800 -78.0170 240° Southwest 452 520 31,100 -1,200 Descending FlightAware ADS-B
Mon 04:54:37 PM 44.3380 -78.1160 239° Southwest 445 512 30,200 -1,976 Descending FlightAware ADS-B
Mon 04:55:22 PM 44.2910 -78.2280 240° Southwest 435 501 28,300 -2,400 Descending FlightAware ADS-B
Mon 04:56:02 PM 44.2530 -78.3200 240° Southwest 428 493 26,800 -2,400 Descending FlightAware ADS-B
Mon 04:56:42 PM 44.2120 -78.4170 239° Southwest 421 484 25,100 -2,400 Descending FlightAware ADS-B
Mon 04:57:27 PM 44.1690 -78.5150 239° Southwest 413 475 23,400 -2,333 Descending FlightAware ADS-B
Mon 04:58:12 PM 44.1220 -78.6230 239° Southwest 404 465 21,600 -2,400 Descending FlightAware ADS-B
Mon 04:58:52 PM 44.0850 -78.7100 239° Southwest 396 456 20,000 -2,325 Descending FlightAware ADS-B
Mon 04:59:32 PM 44.0480 -78.7960 239° Southwest 389 448 18,500 -2,259 Descending FlightAware ADS-B
Mon 05:00:17 PM 44.0060 -78.8870 237° Southwest 385 443 16,800 -1,624 Descending FlightAware ADS-B
Mon 05:00:57 PM 43.9690 -78.9670 237° Southwest 350 403 16,200 -918 Descending FlightAware ADS-B
Mon 05:01:42 PM 43.9320 -79.0470 237° Southwest 307 353 15,500 -1,059 Descending FlightAware ADS-B
Mon 05:02:22 PM 43.9020 -79.1120 237° Southwest 301 346 14,700 -1,350 Descending FlightAware ADS-B
Mon 05:03:02 PM 43.8720 -79.1780 238° Southwest 294 338 13,700 -918 Descending FlightAware ADS-B
Mon 05:03:47 PM 43.8410 -79.2440 237° Southwest 263 303 13,400 -918 Descending FlightAware ADS-B
Mon 05:04:27 PM 43.8150 -79.3000 237° Southwest 251 289 12,400 -1,624 Descending FlightAware ADS-B
Mon 05:05:12 PM 43.7870 -79.3590 237° Southwest 249 287 11,100 -1,624 Descending FlightAware ADS-B
Mon 05:05:52 PM 43.7500 -79.3970 217° Southwest 239 275 10,100 -1,457 Descending FlightAware ADS-B
Mon 05:06:22 PM 43.7230 -79.4240 216° Southwest 241 277 9,400 -1,091 Descending FlightAware ADS-B
Mon 05:06:47 PM 43.7010 -79.4450 215° Southwest 237 273 9,100 -873 Descending FlightAware ADS-B
Mon 05:07:17 PM 43.6750 -79.4710 216° Southwest 234 269 8,600 -982 Descending FlightAware ADS-B
Mon 05:07:42 PM 43.6520 -79.4920 213° Southwest 233 268 8,200 -873 Descending FlightAware ADS-B
Mon 05:08:12 PM 43.6250 -79.5180 215° Southwest 230 265 7,800 -900 Descending FlightAware ADS-B
Mon 05:08:42 PM 43.5990 -79.5430 215° Southwest 228 262 7,300 -1,309 Descending FlightAware ADS-B
Mon 05:09:07 PM 43.5810 -79.5680 225° Southwest 226 260 6,600 -1,745 Descending FlightAware ADS-B
Mon 05:09:37 PM 43.5600 -79.6000 228° Southwest 224 258 5,700 -1,700 Descending FlightAware ADS-B
Mon 05:10:07 PM 43.5400 -79.6320 229° Southwest 222 255 4,900 -1,527 Descending FlightAware ADS-B
Mon 05:10:32 PM 43.5220 -79.6590 227° Southwest 222 255 4,300 -1,350 Descending FlightAware ADS-B
Mon 05:10:47 PM 43.5120 -79.6740 227° Southwest 222 255 4,000 -1,067 Descending FlightAware ADS-B
Mon 05:11:17 PM 43.4910 -79.7040 226° Southwest 218 251 3,500 -800 Descending FlightAware ADS-B
Mon 05:11:32 PM 43.4800 -79.7190 225° Southwest 210 242 3,400 -750 Descending FlightAware ADS-B
Mon 05:11:57 PM 43.4670 -79.7450 235° Southwest 202 232 3,000 -800 Descending FlightAware ADS-B
Mon 05:12:02 PM 43.4660 -79.7510 257° West 202 232 3,000  Level FlightAware ADS-B
Mon 05:12:27 PM 43.4800 -79.7790 305° West 212 244 3,000  Level FlightAware ADS-B
Mon 05:12:52 PM 43.4990 -79.7980 324° Northwest 212 244 3,000 -171 Level FlightAware ADS-B
Mon 05:13:02 PM 43.5080 -79.8020 342° North 215 247 2,900  Descending FlightAware ADS-B
Mon 05:13:22 PM 43.5290 -79.7950 14° North 219 252 3,000  Climbing FlightAware ADS-B
Mon 05:13:47 PM 43.5490 -79.7790 30° Northeast 199 229 2,900  Descending FlightAware ADS-B
Mon 05:14:02 PM 43.5590 -79.7660 43° Northeast 195 224 3,000 -133 Climbing FlightAware ADS-B
Mon 05:14:32 PM 43.5780 -79.7380 47° Northeast 194 223 2,800 -764 Descending FlightAware ADS-B
Mon 05:14:57 PM 43.5930 -79.7160 47° Northeast 188 216 2,300 -1,091 Descending FlightAware ADS-B
Mon 05:15:27 PM 43.6110 -79.6900 46° Northeast 183 211 1,800 -1,000 Descending FlightAware ADS-B
Mon 05:15:57 PM 43.6270 -79.6670 46° Northeast 159 183 1,300 -873 Descending FlightAware ADS-B
Mon 05:16:22 PM 43.6390 -79.6500 46° Northeast 140 161 1,000 -686 Descending FlightAware ADS-B
Mon 05:16:32 PM 43.6430 -79.6440 47° Northeast 139 160 900 -267 Descending FlightAware ADS-B
Mon 05:17:07 PM 43.6570 -79.6240 46° Northeast 138 159 800 -171 Descending FlightAware ADS-B

Login

Don't have an account? Register now (free) for customized features, flight alerts, and more!